Time;durP1;ratioP1;P1;durP2;ratioP2;P2;SDS_P1;SDS_P2;PMS_P1;PMS_P2;Temp;Humidity;BMP_temperature;BMP_pressure;BME280_temperature;BME280_humidity;BME280_pressure;Samples;Min_cycle;Max_cycle;Signal;HPM_P1;HPM_P2
2022/01/30 00:00:47;;;;;;;2.83;2.63;;;;;;;5.85;100.00;101377.00;5019902;28;20181;-49
2022/01/30 00:03:14;;;;;;;4.13;3.33;;;;;;;5.85;100.00;101383.03;5021606;28;20204;-49
2022/01/30 00:05:39;;;;;;;2.93;2.50;;;;;;;5.85;100.00;101387.28;5020815;28;20206;-47
2022/01/30 00:08:05;;;;;;;2.70;2.43;;;;;;;5.82;100.00;101374.38;5018572;28;20614;-49
2022/01/30 00:10:37;;;;;;;2.73;2.53;;;;;;;5.85;100.00;101366.72;5020416;28;20207;-49
2022/01/30 00:13:04;;;;;;;3.30;2.40;;;;;;;5.87;100.00;101377.91;5019740;28;20711;-49
2022/01/30 00:15:39;;;;;;;;;;;;;;;;;;;;;
2022/01/30 00:18:12;;;;;;;2.53;2.33;;;;;;;5.84;100.00;101372.69;5017234;28;20621;-48
2022/01/30 00:20:40;;;;;;;2.97;2.67;;;;;;;5.84;100.00;101371.00;5026083;28;20195;-48
2022/01/30 00:25:46;;;;;;;2.63;2.43;;;;;;;5.86;100.00;101363.31;5023106;28;20183;-48
2022/01/30 00:28:13;;;;;;;2.70;2.40;;;;;;;5.88;100.00;101360.00;5018238;28;20655;-49
2022/01/30 00:30:39;;;;;;;2.60;2.40;;;;;;;5.90;100.00;101357.44;5018461;28;20598;-48
2022/01/30 00:33:07;;;;;;;2.27;2.07;;;;;;;5.92;100.00;101354.09;5015320;28;20217;-46
2022/01/30 00:35:35;;;;;;;3.00;2.20;;;;;;;5.91;100.00;101344.63;5016438;28;20188;-46
2022/01/30 00:38:02;;;;;;;2.70;2.50;;;;;;;5.90;100.00;101349.75;5012801;28;20454;-48
2022/01/30 00:40:27;;;;;;;2.83;2.63;;;;;;;5.92;100.00;101342.94;5020345;28;20203;-48
2022/01/30 00:42:52;;;;;;;3.17;2.00;;;;;;;5.92;100.00;101348.09;5019167;28;20205;-47
2022/01/30 00:45:18;;;;;;;2.60;2.30;;;;;;;5.90;100.00;101353.16;5019897;28;20191;-47
2022/01/30 00:47:43;;;;;;;2.20;2.00;;;;;;;5.88;100.00;101354.84;5018178;28;20191;-48
2022/01/30 00:50:09;;;;;;;2.40;2.20;;;;;;;5.92;100.00;101337.81;5018303;28;20649;-48
2022/01/30 00:52:35;;;;;;;2.47;2.10;;;;;;;5.91;100.00;101346.34;5017447;28;20308;-47
2022/01/30 00:55:00;;;;;;;2.20;2.00;;;;;;;5.90;100.00;101350.59;5021475;28;20692;-49
2022/01/30 00:57:25;;;;;;;1.73;1.60;;;;;;;5.94;100.00;101354.16;5017621;28;20850;-47
2022/01/30 00:59:51;;;;;;;1.90;1.80;;;;;;;5.92;100.00;101356.66;5019612;28;20223;-49
2022/01/30 01:02:17;;;;;;;1.90;1.70;;;;;;;5.92;100.00;101364.38;5019116;28;20227;-49
2022/01/30 01:04:44;;;;;;;1.73;1.63;;;;;;;5.92;100.00;101358.38;5021237;28;20203;-49
2022/01/30 01:07:15;;;;;;;2.13;1.93;;;;;;;5.95;100.00;101367.03;5019850;28;20593;-49
2022/01/30 01:09:43;;;;;;;2.17;1.97;;;;;;;5.92;100.00;101366.06;5017827;28;20211;-48
2022/01/30 01:23:24;;;;;;;1.83;1.70;;;;;;;5.80;100.00;101356.31;5016941;28;20334;-48
2022/01/30 01:25:49;;;;;;;2.07;1.73;;;;;;;5.75;100.00;101360.44;5015038;28;20194;-48
2022/01/30 01:28:14;;;;;;;2.00;1.80;;;;;;;5.70;100.00;101362.91;5013118;28;20271;-49
2022/01/30 01:30:40;;;;;;;2.83;2.03;;;;;;;5.73;100.00;101357.00;5027150;28;20580;-48
2022/01/30 01:33:06;;;;;;;2.30;2.10;;;;;;;5.70;100.00;101351.75;5015688;28;20215;-48
2022/01/30 01:35:32;;;;;;;2.23;2.03;;;;;;;5.70;100.00;101344.91;5022162;28;20223;-47
2022/01/30 01:37:57;;;;;;;2.17;1.97;;;;;;;5.70;100.00;101350.06;5014647;28;20599;-47
2022/01/30 01:40:23;;;;;;;2.03;1.70;;;;;;;5.66;100.00;101348.25;5018508;28;20189;-47
2022/01/30 01:42:49;;;;;;;2.07;1.87;;;;;;;5.64;100.00;101358.47;5018058;28;20694;-47
2022/01/30 01:45:19;;;;;;;2.00;1.90;;;;;;;5.64;100.00;101352.47;5015227;28;20192;-47
2022/01/30 01:47:45;;;;;;;2.43;1.77;;;;;;;5.61;100.00;101355.78;5017002;28;20197;-48
2022/01/30 01:50:17;;;;;;;1.63;1.53;;;;;;;5.65;100.00;101367.91;5019311;28;20672;-47
2022/01/30 01:52:42;;;;;;;2.07;1.87;;;;;;;5.62;100.00;101366.94;5017403;28;20231;-47
2022/01/30 01:55:08;;;;;;;1.80;1.70;;;;;;;5.61;100.00;101368.63;5020742;28;20246;-46
2022/01/30 01:57:33;;;;;;;2.00;1.80;;;;;;;5.60;100.00;101374.59;5015549;28;20202;-46
2022/01/30 01:59:59;;;;;;;1.80;1.70;;;;;;;5.57;100.00;101366.81;5018104;28;20540;-48
2022/01/30 02:02:26;;;;;;;1.93;1.73;;;;;;;5.57;100.00;101373.66;5019737;28;20228;-47
2022/01/30 02:04:57;;;;;;;1.57;1.47;;;;;;;5.57;100.00;101363.38;5012687;28;20182;-47
2022/01/30 02:10:28;;;;;;;1.83;1.60;;;;;;;5.57;100.00;101365.94;4997329;28;20187;-49
2022/01/30 02:12:56;;;;;;;1.60;1.50;;;;;;;5.54;100.00;101366.72;5020703;28;20206;-48
2022/01/30 02:26:17;;;;;;;1.50;1.40;;;;;;;5.61;100.00;101373.78;5017519;28;20319;-48
2022/01/30 02:28:42;;;;;;;2.00;1.27;;;;;;;5.62;100.00;101377.22;5024213;28;20266;-48
2022/01/30 02:31:12;;;;;;;1.63;1.43;;;;;;;5.64;100.00;101385.84;5019106;28;20185;-49
2022/01/30 02:33:39;;;;;;;1.33;1.23;;;;;;;5.64;100.00;101366.16;5017104;28;20216;-48
2022/01/30 02:36:05;;;;;;;1.47;1.30;;;;;;;5.66;100.00;101363.66;5016079;28;20290;-48
2022/01/30 02:38:30;;;;;;;1.80;1.40;;;;;;;5.66;100.00;101350.81;5022652;28;20192;-48
2022/01/30 02:40:57;;;;;;;1.30;1.20;;;;;;;5.66;100.00;101355.94;5020757;28;20188;-49
2022/01/30 02:43:31;;;;;;;1.40;1.30;;;;;;;5.62;100.00;101354.97;5021865;28;20260;-49
2022/01/30 02:46:11;;;;;;;2.47;1.83;;;;;;;5.61;100.00;101358.38;5025583;28;20556;-48
2022/01/30 02:48:58;;;;;;;1.73;1.60;;;;;;;5.60;100.00;101351.47;5026210;28;20188;-49
2022/01/30 02:51:32;;;;;;;1.60;1.50;;;;;;;5.60;100.00;101354.06;5019244;28;20254;-48
2022/01/30 02:54:03;;;;;;;2.20;1.50;;;;;;;5.57;100.00;101356.56;5022649;28;20243;-49
2022/01/30 02:56:29;;;;;;;1.47;1.37;;;;;;;5.52;100.00;101347.84;5022346;28;20667;-49
2022/01/30 02:58:55;;;;;;;1.67;1.23;;;;;;;5.49;100.00;101350.31;5017611;28;20185;-49
2022/01/30 03:01:20;;;;;;;2.47;1.30;;;;;;;5.50;100.00;101357.19;5022723;28;20191;-49
2022/01/30 03:03:45;;;;;;;1.43;1.33;;;;;;;5.48;100.00;101356.28;5023923;28;20353;-49
2022/01/30 03:06:11;;;;;;;1.40;1.20;;;;;;;5.49;100.00;101343.50;5021169;28;20214;-49
2022/01/30 03:08:37;;;;;;;1.23;1.13;;;;;;;5.47;100.00;101345.16;5022611;28;20245;-49
2022/01/30 03:11:02;;;;;;;1.30;1.20;;;;;;;5.52;100.00;101341.84;5024477;28;20189;-49
2022/01/30 03:13:28;;;;;;;1.30;1.20;;;;;;;5.50;100.00;101354.63;5021266;28;20586;-49
2022/01/30 03:15:55;;;;;;;1.90;1.30;;;;;;;5.49;100.00;101355.44;5015570;28;20214;-48
2022/01/30 03:18:21;;;;;;;1.60;1.20;;;;;;;5.48;100.00;101353.69;5020750;28;20190;-49
2022/01/30 03:20:47;;;;;;;1.93;1.23;;;;;;;5.47;100.00;101355.41;5018596;28;20245;-48
2022/01/30 03:23:13;;;;;;;1.40;1.30;;;;;;;5.44;100.00;101360.44;5023944;28;20218;-48
2022/01/30 03:25:38;;;;;;;1.40;1.30;;;;;;;5.43;100.00;101363.84;5023189;28;20184;-48
2022/01/30 03:28:04;;;;;;;1.40;1.30;;;;;;;5.41;100.00;101370.63;5022562;28;20201;-48
2022/01/30 03:30:32;;;;;;;1.57;1.40;;;;;;;5.42;100.00;101374.06;5024618;28;20194;-46
2022/01/30 03:33:00;;;;;;;1.20;1.10;;;;;;;5.39;100.00;101382.53;5017321;28;20209;-46
2022/01/30 03:35:25;;;;;;;1.97;1.20;;;;;;;5.41;100.00;101378.31;5014448;28;20200;-47
2022/01/30 03:37:51;;;;;;;1.60;1.20;;;;;;;5.42;100.00;101381.78;5020038;28;20193;-47
2022/01/30 03:40:17;;;;;;;1.33;1.23;;;;;;;5.44;100.00;101385.28;5022724;28;20188;-47
2022/01/30 03:42:42;;;;;;;1.40;1.30;;;;;;;5.46;100.00;101392.19;5018521;28;20573;-47
2022/01/30 03:45:08;;;;;;;1.70;1.37;;;;;;;5.47;100.00;101393.94;5024472;28;20608;-48
2022/01/30 03:47:33;;;;;;;1.30;1.20;;;;;;;5.47;100.00;101393.94;5015450;28;20267;-48
2022/01/30 03:49:59;;;;;;;1.13;1.07;;;;;;;5.48;100.00;101400.81;5019335;28;20207;-47
2022/01/30 03:52:24;;;;;;;1.40;1.30;;;;;;;5.45;100.00;101400.72;5022355;28;20227;-47
2022/01/30 03:54:49;;;;;;;2.77;1.40;;;;;;;5.36;100.00;101392.75;5020451;28;20208;-47
2022/01/30 03:57:15;;;;;;;1.47;1.37;;;;;;;5.31;100.00;101402.00;5019413;28;20692;-48
2022/01/30 03:59:40;;;;;;;1.00;1.00;;;;;;;5.26;100.00;101398.41;5020520;28;20269;-48
2022/01/30 04:02:05;;;;;;;1.50;1.40;;;;;;;5.24;100.00;101400.03;5014519;28;20191;-48
2022/01/30 04:04:34;;;;;;;1.30;1.20;;;;;;;5.19;100.00;101407.59;5019727;28;20234;-48
2022/01/30 04:07:03;;;;;;;1.97;1.37;;;;;;;5.13;100.00;101408.28;5015819;28;20185;-48
2022/01/30 04:09:29;;;;;;;1.30;1.20;;;;;;;5.11;100.00;101415.06;5018958;28;20194;-48
2022/01/30 04:11:55;;;;;;;1.33;1.17;;;;;;;5.10;100.00;101422.72;5015894;28;20192;-48
2022/01/30 04:14:21;;;;;;;1.50;1.40;;;;;;;5.10;100.00;101421.00;5013646;28;20220;-48
2022/01/30 04:16:46;;;;;;;1.47;1.37;;;;;;;5.08;100.00;101424.38;5020968;28;20203;-48
2022/01/30 04:19:12;;;;;;;2.30;1.50;;;;;;;5.09;100.00;101434.66;5020448;28;20200;-48
2022/01/30 04:21:38;;;;;;;1.50;1.40;;;;;;;5.07;100.00;101433.75;5014778;28;20184;-48
2022/01/30 04:24:04;;;;;;;1.60;1.50;;;;;;;5.04;100.00;101438.78;5016953;28;20218;-48
2022/01/30 04:26:30;;;;;;;1.80;1.40;;;;;;;5.02;100.00;101441.28;5017721;28;20242;-48
2022/01/30 04:28:55;;;;;;;1.40;1.30;;;;;;;4.99;100.00;101446.31;5017396;28;20618;-47
2022/01/30 04:31:21;;;;;;;1.60;1.50;;;;;;;4.95;100.00;101447.06;5014514;28;20192;-47
2022/01/30 04:33:47;;;;;;;1.30;1.20;;;;;;;4.93;100.00;101447.81;5018339;28;20239;-48
2022/01/30 04:36:17;;;;;;;1.43;1.33;;;;;;;4.90;100.00;101442.59;5027512;28;20656;-48
2022/01/30 04:39:04;;;;;;;1.77;1.40;;;;;;;4.86;100.00;101439.03;5020186;28;20179;-48
2022/01/30 05:07:50;;;;;;;1.50;1.40;;;;;;;4.07;100.00;101439.78;5017168;28;20225;-49
2022/01/30 05:10:16;;;;;;;1.50;1.40;;;;;;;3.99;100.00;101445.47;5024310;28;20617;-49
2022/01/30 05:12:51;;;;;;;1.63;1.10;;;;;;;3.88;100.00;101451.03;5022205;28;20748;-48
2022/01/30 05:15:19;;;;;;;1.50;1.20;;;;;;;3.80;100.00;101455.00;5015817;28;20224;-48
2022/01/30 05:17:45;;;;;;;1.67;1.53;;;;;;;3.73;100.00;101448.78;5018870;28;20192;-48
2022/01/30 05:20:10;;;;;;;1.40;1.30;;;;;;;3.72;100.00;101449.59;5018684;28;20184;-49
2022/01/30 05:22:36;;;;;;;2.50;1.30;;;;;;;3.70;100.00;101438.41;5019299;28;20223;-49
2022/01/30 05:25:03;;;;;;;1.50;1.40;;;;;;;3.68;100.00;101441.75;5018054;28;20284;-47
2022/01/30 05:27:29;;;;;;;1.57;1.47;;;;;;;3.64;100.00;101445.84;5017420;28;20192;-48
2022/01/30 05:29:55;;;;;;;1.60;1.50;;;;;;;3.64;100.00;101448.41;5020555;28;20187;-47
2022/01/30 05:32:20;;;;;;;2.00;1.47;;;;;;;3.59;100.00;101457.63;5017613;28;20215;-47
2022/01/30 05:34:46;;;;;;;1.53;1.43;;;;;;;3.55;100.00;101460.88;5015339;28;20203;-49
2022/01/30 05:37:16;;;;;;;1.47;1.37;;;;;;;3.60;100.00;101467.06;5016927;28;20196;-46
2022/01/30 05:39:41;;;;;;;1.63;1.20;;;;;;;3.67;100.00;101479.25;5020141;28;20220;-46
2022/01/30 05:42:08;;;;;;;1.67;1.40;;;;;;;3.70;100.00;101479.38;5020154;28;20231;-49
2022/01/30 05:47:16;;;;;;;3.80;1.57;;;;;;;3.69;100.00;101481.91;5024240;28;20195;-48
2022/01/30 05:49:43;;;;;;;1.80;1.30;;;;;;;3.68;100.00;101478.44;5019782;28;20226;-48
2022/01/30 05:52:08;;;;;;;2.17;1.50;;;;;;;3.66;100.00;101486.09;5012425;28;20194;-48
2022/01/30 05:54:33;;;;;;;2.07;1.80;;;;;;;3.63;100.00;101487.66;5016341;28;20595;-47
2022/01/30 05:56:58;;;;;;;2.40;1.80;;;;;;;3.64;100.00;101490.25;5020218;28;20195;-50
2022/01/30 05:59:24;;;;;;;1.50;1.40;;;;;;;3.69;100.00;101494.69;5019679;28;20187;-49
2022/01/30 06:01:49;;;;;;;1.67;1.57;;;;;;;3.72;100.00;101489.66;5024292;28;20220;-49
2022/01/30 06:04:15;;;;;;;2.10;1.77;;;;;;;3.76;100.00;101487.31;5037002;28;20551;-49
2022/01/30 06:06:48;;;;;;;1.70;1.60;;;;;;;3.78;100.00;101500.16;5029013;28;20892;-49
2022/01/30 06:11:42;;;;;;;2.10;1.87;;;;;;;3.76;100.00;101496.66;5027748;28;20188;-49
2022/01/30 06:14:08;;;;;;;2.90;1.83;;;;;;;3.76;100.00;101504.34;5018591;28;20219;-49
2022/01/30 06:16:33;;;;;;;3.57;1.97;;;;;;;3.74;100.00;101513.66;5024575;28;20309;-49
2022/01/30 06:19:01;;;;;;;3.07;1.63;;;;;;;3.68;100.00;101519.41;5026401;28;20265;-49
2022/01/30 06:21:26;;;;;;;1.70;1.60;;;;;;;3.62;100.00;101530.28;5018512;28;20665;-49
2022/01/30 06:23:52;;;;;;;2.27;1.93;;;;;;;3.62;100.00;101519.19;5026394;28;20199;-48
2022/01/30 06:26:17;;;;;;;3.03;1.90;;;;;;;3.64;100.00;101523.53;5022470;28;20703;-49
2022/01/30 06:28:42;;;;;;;2.20;2.00;;;;;;;3.72;100.00;101528.06;5023877;28;20191;-46
2022/01/30 06:31:08;;;;;;;2.60;2.03;;;;;;;3.72;100.00;101536.66;5022826;28;20241;-46
2022/01/30 06:33:33;;;;;;;2.23;1.90;;;;;;;3.70;100.00;101533.16;5023554;28;20216;-46
2022/01/30 06:35:58;;;;;;;1.93;1.77;;;;;;;3.61;100.00;101546.47;5021462;28;20199;-47
2022/01/30 06:38:24;;;;;;;2.23;1.97;;;;;;;3.56;100.00;101560.75;5019189;28;20219;-49
2022/01/30 06:40:49;;;;;;;3.00;2.03;;;;;;;3.51;100.00;101559.72;5018799;28;20191;-49
2022/01/30 06:43:14;;;;;;;2.27;2.00;;;;;;;3.46;100.00;101558.63;5018030;28;20208;-49
2022/01/30 06:45:42;;;;;;;2.83;2.07;;;;;;;3.40;100.00;101560.97;5021757;28;20983;-49
2022/01/30 06:48:07;;;;;;;2.30;2.10;;;;;;;3.40;100.00;101563.53;5025375;28;20570;-49
2022/01/30 06:50:33;;;;;;;3.53;2.27;;;;;;;3.41;100.00;101560.13;5019721;28;20192;-53
2022/01/30 06:52:58;;;;;;;3.10;2.57;;;;;;;3.38;100.00;101560.03;5023132;28;20243;-48
2022/01/30 06:55:24;;;;;;;4.60;2.43;;;;;;;3.35;100.00;101566.75;5021147;28;20227;-48
2022/01/30 06:57:49;;;;;;;2.90;2.23;;;;;;;3.32;100.00;101561.50;5024694;28;20187;-49
2022/01/30 07:00:15;;;;;;;3.37;2.17;;;;;;;3.34;100.00;101571.78;5027928;28;20199;-48
2022/01/30 07:02:40;;;;;;;3.00;2.33;;;;;;;3.33;100.00;101560.69;5028734;28;20275;-49
2022/01/30 07:05:06;;;;;;;5.43;2.60;;;;;;;3.35;100.00;101569.31;5028326;28;20215;-49
2022/01/30 07:07:31;;;;;;;3.30;2.40;;;;;;;3.37;100.00;101574.50;5033023;28;20183;-48
2022/01/30 07:09:57;;;;;;;3.53;2.50;;;;;;;3.37;100.00;101571.94;5025479;28;20215;-48
2022/01/30 07:12:22;;;;;;;4.70;2.90;;;;;;;3.39;100.00;101572.88;5017566;28;20207;-49
2022/01/30 07:14:48;;;;;;;2.97;2.07;;;;;;;3.39;100.00;101582.25;5019326;28;20232;-47
2022/01/30 07:17:14;;;;;;;6.03;2.83;;;;;;;3.41;100.00;101588.28;5021499;28;20223;-49
2022/01/30 07:19:40;;;;;;;3.10;2.80;;;;;;;3.40;100.00;101582.28;5024391;28;20270;-49
2022/01/30 07:22:05;;;;;;;4.20;3.30;;;;;;;3.40;100.00;101584.84;5018358;28;20279;-48
2022/01/30 07:24:30;;;;;;;3.77;3.03;;;;;;;3.40;100.00;101589.97;5023107;28;20262;-49
2022/01/30 07:26:56;;;;;;;3.30;2.77;;;;;;;3.41;100.00;101595.94;5018526;28;20235;-49
2022/01/30 07:29:22;;;;;;;3.37;3.00;;;;;;;3.41;100.00;101595.94;5020327;28;20223;-48
2022/01/30 07:31:47;;;;;;;4.00;3.47;;;;;;;3.40;100.00;101601.91;5019786;28;20221;-48
2022/01/30 07:34:13;;;;;;;4.30;3.60;;;;;;;3.38;100.00;101600.97;5021328;28;20222;-46
2022/01/30 07:36:38;;;;;;;5.80;3.90;;;;;;;3.37;100.00;101612.00;5019995;28;20630;-47
2022/01/30 07:39:06;;;;;;;4.40;3.40;;;;;;;3.35;100.00;101606.81;5018317;28;20719;-46
2022/01/30 07:41:32;;;;;;;4.20;3.80;;;;;;;3.37;100.00;101606.91;5016495;28;20191;-47
2022/01/30 07:43:58;;;;;;;6.53;4.70;;;;;;;3.36;100.00;101606.00;5019851;28;20211;-47
2022/01/30 07:46:23;;;;;;;7.30;5.40;;;;;;;3.37;100.00;101617.13;5023530;28;20188;-47
2022/01/30 07:48:48;;;;;;;5.53;4.30;;;;;;;3.35;100.00;101615.38;5016292;28;20184;-47
2022/01/30 07:51:14;;;;;;;7.20;6.37;;;;;;;3.35;100.00;101622.16;5018230;28;20227;-47
2022/01/30 07:53:39;;;;;;;8.60;6.57;;;;;;;3.34;100.00;101626.44;5022824;28;20681;-47
2022/01/30 07:56:05;;;;;;;5.87;5.30;;;;;;;3.37;100.00;101633.34;5025759;28;20275;-47
2022/01/30 07:58:30;;;;;;;6.20;4.80;;;;;;;3.40;100.00;101635.19;5015187;28;20192;-47
2022/01/30 08:00:55;;;;;;;6.53;5.73;;;;;;;3.46;100.00;101643.09;5017189;28;20192;-47
2022/01/30 08:03:22;;;;;;;7.57;6.17;;;;;;;3.54;100.00;101645.97;5030415;28;20394;-49
2022/01/30 08:05:48;;;;;;;5.50;5.00;;;;;;;3.62;100.00;101647.19;5024543;28;20211;-47
2022/01/30 08:08:13;;;;;;;8.73;5.90;;;;;;;3.69;100.00;101649.19;5018406;28;20587;-47
2022/01/30 08:10:38;;;;;;;8.63;6.67;;;;;;;3.78;100.00;101646.97;5018195;28;20199;-46
2022/01/30 08:13:04;;;;;;;8.77;6.20;;;;;;;3.86;100.00;101638.75;5021284;28;20215;-47
2022/01/30 08:15:30;;;;;;;6.33;5.73;;;;;;;3.93;100.00;101643.31;5019125;28;20223;-49
2022/01/30 08:17:56;;;;;;;6.83;5.37;;;;;;;4.00;100.00;101640.19;5017531;28;20337;-47
2022/01/30 08:20:25;;;;;;;8.03;5.83;;;;;;;4.08;100.00;101646.47;5014323;28;20272;-49
2022/01/30 08:22:52;;;;;;;5.67;4.53;;;;;;;4.17;100.00;101650.22;5020373;28;20212;-49
2022/01/30 08:25:19;;;;;;;4.70;4.00;;;;;;;4.22;100.00;101657.28;5017045;28;20203;-49
2022/01/30 08:27:45;;;;;;;4.93;4.43;;;;;;;4.30;100.00;101651.59;5016978;28;20258;-50
2022/01/30 08:30:11;;;;;;;5.43;4.33;;;;;;;4.38;100.00;101651.06;5019200;28;20683;-49
2022/01/30 08:32:40;;;;;;;5.87;4.40;;;;;;;4.48;100.00;101649.69;5019370;28;20207;-48
2022/01/30 08:35:08;;;;;;;5.17;4.00;;;;;;;4.58;100.00;101658.63;5019463;28;20216;-48
2022/01/30 08:37:35;;;;;;;5.53;4.43;;;;;;;4.75;100.00;101663.50;5017840;28;20187;-48
2022/01/30 08:40:01;;;;;;;7.37;4.73;;;;;;;4.92;100.00;101659.88;5020186;28;20225;-46
2022/01/30 08:42:28;;;;;;;7.03;4.50;;;;;;;5.13;100.00;101658.91;5022351;28;20226;-49
2022/01/30 08:44:54;;;;;;;5.50;4.17;;;;;;;5.29;100.00;101673.16;5018402;28;20175;-46
2022/01/30 08:47:19;;;;;;;6.60;3.60;;;;;;;5.43;100.00;101674.50;5019377;28;20251;-48
2022/01/30 08:49:44;;;;;;;7.07;4.20;;;;;;;5.56;100.00;101668.09;5015048;28;20622;-50
2022/01/30 08:52:12;;;;;;;7.43;4.30;;;;;;;5.66;100.00;101666.72;5018851;28;20199;-50
2022/01/30 08:54:37;;;;;;;7.93;4.67;;;;;;;5.74;100.00;101659.28;5018726;28;20210;-50
2022/01/30 08:57:03;;;;;;;8.53;4.53;;;;;;;5.78;100.00;101664.56;5016512;28;20687;-49
2022/01/30 08:59:28;;;;;;;6.00;3.90;;;;;;;5.81;100.00;101676.63;5017996;28;20716;-49
2022/01/30 09:01:55;;;;;;;6.10;3.90;;;;;;;5.81;100.00;101663.78;5017710;28;20665;-48
2022/01/30 09:04:20;;;;;;;8.17;4.10;;;;;;;5.80;100.00;101660.34;5022429;28;20186;-49
2022/01/30 09:06:45;;;;;;;6.07;4.00;;;;;;;5.81;100.00;101674.03;5019464;28;20296;-49
2022/01/30 09:09:10;;;;;;;7.77;4.13;;;;;;;5.79;100.00;101670.56;5015340;28;20198;-49
2022/01/30 09:11:36;;;;;;;7.37;4.30;;;;;;;5.74;100.00;101674.69;5018220;28;20197;-49
2022/01/30 09:14:02;;;;;;;7.07;3.70;;;;;;;5.72;100.00;101677.19;5017906;28;20742;-49
2022/01/30 09:16:28;;;;;;;7.10;4.23;;;;;;;5.72;100.00;101676.31;5021360;28;20187;-49
2022/01/30 09:18:53;;;;;;;8.10;4.10;;;;;;;5.73;100.00;101671.22;5024420;28;20183;-49
2022/01/30 09:21:20;;;;;;;8.17;3.90;;;;;;;5.76;100.00;101680.72;5018434;28;20266;-49
2022/01/30 09:23:45;;;;;;;9.53;4.60;;;;;;;5.78;100.00;101677.41;5020303;28;20227;-49
2022/01/30 09:26:11;;;;;;;10.47;4.73;;;;;;;5.80;100.00;101672.31;5018646;28;20189;-49
2022/01/30 09:28:36;;;;;;;9.87;4.40;;;;;;;5.83;100.00;101676.66;5016261;28;20682;-49
2022/01/30 09:31:01;;;;;;;6.10;4.10;;;;;;;5.85;100.00;101678.47;5017599;28;20262;-49
2022/01/30 09:33:27;;;;;;;7.87;4.33;;;;;;;5.90;100.00;101666.63;5021011;28;20203;-47
2022/01/30 09:35:52;;;;;;;7.47;4.33;;;;;;;5.94;100.00;101673.63;5009701;28;20188;-47
2022/01/30 09:38:18;;;;;;;7.27;4.33;;;;;;;5.98;100.00;101674.59;5022191;28;20195;-47
2022/01/30 09:40:43;;;;;;;8.83;4.40;;;;;;;6.01;100.00;101667.00;5021271;28;20185;-47
2022/01/30 09:43:10;;;;;;;9.10;4.67;;;;;;;6.02;100.00;101657.63;5020038;28;20207;-46
2022/01/30 09:45:35;;;;;;;13.67;5.10;;;;;;;6.06;100.00;101654.31;5022286;28;20180;-48
2022/01/30 09:48:01;;;;;;;8.80;4.37;;;;;;;6.08;100.00;101662.94;5024406;28;20787;-47
2022/01/30 09:50:28;;;;;;;8.77;4.30;;;;;;;6.11;100.00;101655.34;5019316;28;20238;-48
2022/01/30 09:52:53;;;;;;;7.90;4.10;;;;;;;6.16;100.00;101658.03;5022534;28;20217;-47
2022/01/30 09:55:19;;;;;;;10.77;4.20;;;;;;;6.20;100.00;101657.31;5021277;28;20206;-48
2022/01/30 09:57:46;;;;;;;10.80;4.57;;;;;;;6.24;100.00;101661.75;5022454;28;20186;-48
2022/01/30 10:00:13;;;;;;;11.67;4.60;;;;;;;6.27;100.00;101660.97;5022166;28;20706;-48
2022/01/30 10:02:42;;;;;;;8.90;4.47;;;;;;;6.31;100.00;101658.50;5023083;28;20214;-48
2022/01/30 10:05:10;;;;;;;10.03;4.03;;;;;;;6.34;100.00;101655.19;5020316;28;20188;-48
2022/01/30 10:07:45;;;;;;;6.77;3.87;;;;;;;6.37;100.00;101657.81;5022513;28;20272;-47
2022/01/30 10:10:13;;;;;;;9.33;4.10;;;;;;;6.39;100.00;101649.34;5024220;28;20583;-48
2022/01/30 10:13:00;;;;;;;6.10;3.50;;;;;;;6.46;100.00;101662.38;5020046;28;20600;-48
2022/01/30 10:15:25;;;;;;;10.73;4.83;;;;;;;6.48;100.00;101665.88;5021659;28;20194;-49
2022/01/30 10:17:51;;;;;;;8.30;4.20;;;;;;;6.48;100.00;101653.91;5022206;28;20654;-49
2022/01/30 10:20:19;;;;;;;7.83;3.87;;;;;;;6.48;100.00;101659.06;5020932;28;20685;-49
2022/01/30 10:22:53;;;;;;;8.80;4.17;;;;;;;6.51;100.00;101653.97;5017831;28;20204;-49
2022/01/30 10:25:21;;;;;;;12.00;3.93;;;;;;;6.54;100.00;101653.22;5022786;28;20209;-49
2022/01/30 10:27:47;;;;;;;13.27;5.10;;;;;;;6.56;100.00;101647.28;5022656;28;20189;-49
2022/01/30 10:30:20;;;;;;;9.20;3.80;;;;;;;6.60;100.00;101630.22;5017033;28;20190;-49
2022/01/30 10:32:56;;;;;;;9.47;3.77;;;;;;;6.61;100.00;101641.41;5018758;28;20734;-49
2022/01/30 10:35:21;;;;;;;7.70;3.40;;;;;;;6.63;100.00;101634.59;5024542;28;20212;-46
2022/01/30 10:37:46;;;;;;;8.80;3.60;;;;;;;6.67;100.00;101634.72;5019732;28;20550;-48
2022/01/30 10:40:19;;;;;;;9.70;3.57;;;;;;;6.73;100.00;101628.88;5021675;28;20684;-47
2022/01/30 10:42:47;;;;;;;9.97;3.63;;;;;;;6.79;100.00;101620.47;5018638;28;20297;-47
2022/01/30 10:45:33;;;;;;;8.50;3.07;;;;;;;6.83;100.00;101628.31;5021636;28;20241;-47
2022/01/30 10:48:21;;;;;;;7.10;2.43;;;;;;;6.94;100.00;101620.91;5024348;28;20192;-48
2022/01/30 10:50:48;;;;;;;5.77;2.37;;;;;;;7.07;100.00;101616.06;5019651;28;20823;-48
2022/01/30 10:53:26;;;;;;;7.70;2.60;;;;;;;7.26;100.00;101620.88;5020502;28;20753;-48
2022/01/30 10:55:53;;;;;;;7.83;2.73;;;;;;;7.45;100.00;101618.78;5023672;28;20185;-48
2022/01/30 10:58:22;;;;;;;8.60;3.70;;;;;;;7.61;97.05;101618.34;5018614;28;20428;-48
2022/01/30 11:00:53;;;;;;;10.93;3.93;;;;;;;7.62;97.26;101612.38;5021931;28;20704;-48
2022/01/30 11:03:45;;;;;;;8.20;3.27;;;;;;;7.59;91.27;101614.84;5018288;28;20720;-48
2022/01/30 11:06:14;;;;;;;8.57;2.90;;;;;;;7.55;87.47;101615.59;5023042;28;20329;-48
2022/01/30 11:08:43;;;;;;;6.67;3.00;;;;;;;7.51;89.65;101612.91;5023075;28;20186;-48
2022/01/30 11:11:39;;;;;;;14.27;5.70;;;;;;;7.56;88.35;101613.91;5021636;28;20186;-48
2022/01/30 11:19:19;;;;;;;8.40;3.40;;;;;;;8.19;87.90;101617.97;5021217;28;20572;-47
2022/01/30 11:21:49;;;;;;;7.20;2.73;;;;;;;8.44;87.50;101622.78;5021533;28;20187;-48
2022/01/30 11:24:16;;;;;;;8.27;2.77;;;;;;;8.49;85.73;101610.88;5025242;28;20207;-47
2022/01/30 11:26:42;;;;;;;8.13;2.70;;;;;;;8.35;86.54;101626.03;5026567;28;20465;-47
2022/01/30 11:29:13;;;;;;;5.53;2.23;;;;;;;8.23;87.53;101618.91;5017115;28;20536;-47
2022/01/30 11:31:39;;;;;;;6.80;2.80;;;;;;;8.16;85.50;101612.72;5026252;28;20218;-47
2022/01/30 11:34:04;;;;;;;7.33;2.17;;;;;;;7.99;85.89;101624.38;5020748;28;20227;-48
2022/01/30 11:36:32;;;;;;;6.30;2.20;;;;;;;7.84;87.18;101622.31;5018008;28;20199;-48
2022/01/30 11:38:58;;;;;;;9.93;2.97;;;;;;;7.74;85.91;101628.94;5024520;28;20531;-53
2022/01/30 11:41:24;;;;;;;28.80;12.60;;;;;;;7.59;83.22;101629.44;5012570;28;20241;-48
2022/01/30 11:44:19;;;;;;;12.03;4.93;;;;;;;7.40;82.46;101628.09;5014558;28;20627;-47
2022/01/30 11:47:04;;;;;;;10.87;3.33;;;;;;;7.23;83.65;101625.09;5008032;28;20618;-47
2022/01/30 11:49:58;;;;;;;11.03;4.20;;;;;;;7.11;84.69;101631.63;5018738;28;20276;-47
2022/01/30 11:52:44;;;;;;;9.13;3.80;;;;;;;7.15;86.01;101622.31;5019034;28;20219;-47
2022/01/30 11:55:49;;;;;;;9.50;3.23;;;;;;;7.37;86.55;101625.44;5015916;28;20272;-47
2022/01/30 11:58:30;;;;;;;6.30;2.60;;;;;;;7.65;86.80;101620.97;5012578;28;20191;-47
2022/01/30 12:01:13;;;;;;;8.90;2.87;;;;;;;7.86;85.85;101623.22;5017968;28;20445;-47
2022/01/30 12:03:38;;;;;;;7.53;2.90;;;;;;;8.08;83.17;101616.88;5037296;28;20279;-47
2022/01/30 12:06:40;;;;;;;6.57;2.50;;;;;;;8.24;82.36;101611.19;5020886;28;20204;-47
2022/01/30 12:09:19;;;;;;;7.00;2.70;;;;;;;8.34;82.25;101619.13;5013825;28;20205;-47
2022/01/30 12:11:48;;;;;;;6.43;2.87;;;;;;;8.40;82.21;101611.50;5018135;28;20278;-50
2022/01/30 12:14:19;;;;;;;7.43;2.40;;;;;;;8.48;81.23;101606.56;5015802;28;20551;-49
2022/01/30 12:16:51;;;;;;;6.50;2.37;;;;;;;8.58;81.75;101610.19;5022460;28;20203;-49
2022/01/30 12:19:45;;;;;;;6.47;2.30;;;;;;;8.73;82.00;101614.81;5016652;28;20190;-49
2022/01/30 12:22:16;;;;;;;8.30;2.97;;;;;;;8.89;81.58;101609.13;5004843;28;20224;-49
2022/01/30 12:24:45;;;;;;;6.13;2.10;;;;;;;9.02;81.61;101617.09;5020061;28;20179;-49
2022/01/30 12:27:10;;;;;;;7.80;2.43;;;;;;;9.15;81.46;101600.97;5016686;28;20191;-49
2022/01/30 12:29:40;;;;;;;4.07;2.00;;;;;;;9.10;80.58;101605.19;5017268;28;20583;-49
2022/01/30 12:32:27;;;;;;;4.20;1.97;;;;;;;9.01;81.38;101598.13;5019429;28;20198;-49
2022/01/30 12:34:55;;;;;;;4.87;2.57;;;;;;;8.90;80.56;101587.63;5010551;28;20687;-49